sensor_id;sensor_type;location;lat;lon;timestamp;temperature;humidity
22081;DHT22;11207;59.512;18.050;2023-06-04T00:01:34;12.10;99.90
22081;DHT22;11207;59.512;18.050;2023-06-04T00:04:00;12.10;99.90
22081;DHT22;11207;59.512;18.050;2023-06-04T00:06:25;12.20;99.90
22081;DHT22;11207;59.512;18.050;2023-06-04T00:08:51;12.20;99.90
22081;DHT22;11207;59.512;18.050;2023-06-04T00:11:16;12.20;99.90
22081;DHT22;11207;59.512;18.050;2023-06-04T00:13:42;12.30;99.90
22081;DHT22;11207;59.512;18.050;2023-06-04T00:16:07;12.30;99.90
22081;DHT22;11207;59.512;18.050;2023-06-04T00:18:33;12.30;99.90
22081;DHT22;11207;59.512;18.050;2023-06-04T00:20:59;12.20;99.90
22081;DHT22;11207;59.512;18.050;2023-06-04T00:23:24;12.30;99.90
22081;DHT22;11207;59.512;18.050;2023-06-04T00:25:50;12.20;99.90
22081;DHT22;11207;59.512;18.050;2023-06-04T00:28:16;12.30;99.90
22081;DHT22;11207;59.512;18.050;2023-06-04T00:30:41;12.10;99.90
22081;DHT22;11207;59.512;18.050;2023-06-04T00:33:07;12.20;99.90
22081;DHT22;11207;59.512;18.050;2023-06-04T00:35:33;12.20;99.90
22081;DHT22;11207;59.512;18.050;2023-06-04T00:37:58;12.10;99.90
22081;DHT22;11207;59.512;18.050;2023-06-04T00:40:24;12.10;99.90
22081;DHT22;11207;59.512;18.050;2023-06-04T00:42:50;12.20;99.90
22081;DHT22;11207;59.512;18.050;2023-06-04T00:45:15;12.10;99.90
22081;DHT22;11207;59.512;18.050;2023-06-04T00:47:44;12.20;99.90
22081;DHT22;11207;59.512;18.050;2023-06-04T00:50:11;12.20;99.90
22081;DHT22;11207;59.512;18.050;2023-06-04T00:52:37;12.20;99.90
22081;DHT22;11207;59.512;18.050;2023-06-04T00:55:04;12.00;99.90
22081;DHT22;11207;59.512;18.050;2023-06-04T00:57:30;12.10;99.90
22081;DHT22;11207;59.512;18.050;2023-06-04T00:59:55;12.10;99.90
22081;DHT22;11207;59.512;18.050;2023-06-04T01:02:23;12.10;99.90
22081;DHT22;11207;59.512;18.050;2023-06-04T01:05:14;12.20;99.90
22081;DHT22;11207;59.512;18.050;2023-06-04T01:07:45;12.10;99.90
22081;DHT22;11207;59.512;18.050;2023-06-04T01:10:15;12.00;99.90
22081;DHT22;11207;59.512;18.050;2023-06-04T01:12:41;12.10;99.90
22081;DHT22;11207;59.512;18.050;2023-06-04T01:15:08;12.00;99.90
22081;DHT22;11207;59.512;18.050;2023-06-04T01:17:39;11.90;99.90
22081;DHT22;11207;59.512;18.050;2023-06-04T01:20:39;11.80;99.90
22081;DHT22;11207;59.512;18.050;2023-06-04T01:26:03;11.70;99.90
22081;DHT22;11207;59.512;18.050;2023-06-04T01:28:32;11.60;99.90
22081;DHT22;11207;59.512;18.050;2023-06-04T01:30:58;11.50;99.90
22081;DHT22;11207;59.512;18.050;2023-06-04T01:33:25;11.70;99.90
22081;DHT22;11207;59.512;18.050;2023-06-04T01:35:51;11.50;99.90
22081;DHT22;11207;59.512;18.050;2023-06-04T01:38:17;11.50;99.90
22081;DHT22;11207;59.512;18.050;2023-06-04T01:40:43;11.50;99.90
22081;DHT22;11207;59.512;18.050;2023-06-04T01:43:09;11.50;99.90
22081;DHT22;11207;59.512;18.050;2023-06-04T01:45:35;11.50;99.90
22081;DHT22;11207;59.512;18.050;2023-06-04T01:48:02;11.60;99.90
22081;DHT22;11207;59.512;18.050;2023-06-04T01:50:28;11.50;99.90
22081;DHT22;11207;59.512;18.050;2023-06-04T01:52:54;11.60;99.90
22081;DHT22;11207;59.512;18.050;2023-06-04T01:55:20;11.60;99.90
22081;DHT22;11207;59.512;18.050;2023-06-04T01:57:46;11.70;99.90
22081;DHT22;11207;59.512;18.050;2023-06-04T02:00:17;11.70;99.90
22081;DHT22;11207;59.512;18.050;2023-06-04T02:02:44;11.60;99.90
22081;DHT22;11207;59.512;18.050;2023-06-04T02:05:11;11.60;99.90
22081;DHT22;11207;59.512;18.050;2023-06-04T02:07:38;11.60;99.90
22081;DHT22;11207;59.512;18.050;2023-06-04T02:10:06;11.40;99.90
22081;DHT22;11207;59.512;18.050;2023-06-04T02:12:32;11.40;99.90
22081;DHT22;11207;59.512;18.050;2023-06-04T02:14:58;11.40;99.90
22081;DHT22;11207;59.512;18.050;2023-06-04T02:17:23;11.30;99.90
22081;DHT22;11207;59.512;18.050;2023-06-04T02:19:49;11.30;99.90
22081;DHT22;11207;59.512;18.050;2023-06-04T02:22:19;11.50;99.90
22081;DHT22;11207;59.512;18.050;2023-06-04T02:24:45;11.50;99.90
22081;DHT22;11207;59.512;18.050;2023-06-04T02:27:12;11.50;99.90
22081;DHT22;11207;59.512;18.050;2023-06-04T02:29:40;11.30;99.90
22081;DHT22;11207;59.512;18.050;2023-06-04T02:32:07;11.20;99.90
22081;DHT22;11207;59.512;18.050;2023-06-04T02:34:33;11.20;99.90
22081;DHT22;11207;59.512;18.050;2023-06-04T02:37:02;11.10;99.90
22081;DHT22;11207;59.512;18.050;2023-06-04T02:39:28;11.10;99.90
22081;DHT22;11207;59.512;18.050;2023-06-04T02:41:54;11.20;99.90
22081;DHT22;11207;59.512;18.050;2023-06-04T02:44:19;11.00;99.90
22081;DHT22;11207;59.512;18.050;2023-06-04T02:46:46;10.90;99.90
22081;DHT22;11207;59.512;18.050;2023-06-04T02:49:13;10.80;99.90
22081;DHT22;11207;59.512;18.050;2023-06-04T02:51:42;10.70;99.90
22081;DHT22;11207;59.512;18.050;2023-06-04T02:54:10;10.60;99.90
22081;DHT22;11207;59.512;18.050;2023-06-04T02:56:36;10.70;99.90
22081;DHT22;11207;59.512;18.050;2023-06-04T02:59:03;10.60;99.90
22081;DHT22;11207;59.512;18.050;2023-06-04T03:01:29;10.50;99.90
22081;DHT22;11207;59.512;18.050;2023-06-04T03:03:55;10.60;99.90
22081;DHT22;11207;59.512;18.050;2023-06-04T03:06:22;10.60;99.90
22081;DHT22;11207;59.512;18.050;2023-06-04T03:08:49;10.60;99.90
22081;DHT22;11207;59.512;18.050;2023-06-04T03:11:19;10.60;99.90
22081;DHT22;11207;59.512;18.050;2023-06-04T03:13:46;10.70;99.90
22081;DHT22;11207;59.512;18.050;2023-06-04T03:16:12;10.70;99.90
22081;DHT22;11207;59.512;18.050;2023-06-04T03:18:41;10.80;99.90
22081;DHT22;11207;59.512;18.050;2023-06-04T03:21:07;10.80;99.90
22081;DHT22;11207;59.512;18.050;2023-06-04T03:23:34;10.90;99.90
22081;DHT22;11207;59.512;18.050;2023-06-04T03:26:01;10.90;99.90
22081;DHT22;11207;59.512;18.050;2023-06-04T03:28:26;10.90;99.90
22081;DHT22;11207;59.512;18.050;2023-06-04T03:30:52;10.90;99.90
22081;DHT22;11207;59.512;18.050;2023-06-04T03:33:18;10.90;99.90
22081;DHT22;11207;59.512;18.050;2023-06-04T03:35:43;10.80;99.90
22081;DHT22;11207;59.512;18.050;2023-06-04T03:38:09;10.80;99.90
22081;DHT22;11207;59.512;18.050;2023-06-04T03:40:35;10.70;99.90
22081;DHT22;11207;59.512;18.050;2023-06-04T03:43:00;10.70;99.90
22081;DHT22;11207;59.512;18.050;2023-06-04T03:45:26;10.80;99.90
22081;DHT22;11207;59.512;18.050;2023-06-04T03:47:52;10.60;99.90
22081;DHT22;11207;59.512;18.050;2023-06-04T03:50:20;10.60;99.90
22081;DHT22;11207;59.512;18.050;2023-06-04T03:52:47;10.50;99.90
22081;DHT22;11207;59.512;18.050;2023-06-04T03:55:13;10.40;99.90
22081;DHT22;11207;59.512;18.050;2023-06-04T03:57:39;10.50;99.90
22081;DHT22;11207;59.512;18.050;2023-06-04T04:00:09;10.50;99.90
22081;DHT22;11207;59.512;18.050;2023-06-04T04:02:38;10.40;99.90
22081;DHT22;11207;59.512;18.050;2023-06-04T04:05:04;10.40;99.90
22081;DHT22;11207;59.512;18.050;2023-06-04T04:07:29;10.30;99.90
22081;DHT22;11207;59.512;18.050;2023-06-04T04:09:55;10.50;99.90
22081;DHT22;11207;59.512;18.050;2023-06-04T04:12:20;10.40;99.90
22081;DHT22;11207;59.512;18.050;2023-06-04T04:14:46;10.40;99.90
22081;DHT22;11207;59.512;18.050;2023-06-04T04:17:13;10.40;99.90
22081;DHT22;11207;59.512;18.050;2023-06-04T04:19:39;10.50;99.90
22081;DHT22;11207;59.512;18.050;2023-06-04T04:22:04;10.50;99.90
22081;DHT22;11207;59.512;18.050;2023-06-04T04:24:30;10.40;99.90
22081;DHT22;11207;59.512;18.050;2023-06-04T04:26:57;10.60;99.90
22081;DHT22;11207;59.512;18.050;2023-06-04T04:29:24;10.70;99.90
22081;DHT22;11207;59.512;18.050;2023-06-04T04:31:54;11.00;99.90
22081;DHT22;11207;59.512;18.050;2023-06-04T04:34:26;11.30;99.90
22081;DHT22;11207;59.512;18.050;2023-06-04T04:36:52;11.60;99.90
22081;DHT22;11207;59.512;18.050;2023-06-04T04:39:23;11.90;99.90
22081;DHT22;11207;59.512;18.050;2023-06-04T04:41:50;12.40;99.90
22081;DHT22;11207;59.512;18.050;2023-06-04T04:44:16;12.70;99.90
22081;DHT22;11207;59.512;18.050;2023-06-04T04:46:44;13.10;99.90
22081;DHT22;11207;59.512;18.050;2023-06-04T04:49:10;13.40;99.90
22081;DHT22;11207;59.512;18.050;2023-06-04T04:51:36;13.70;99.90
22081;DHT22;11207;59.512;18.050;2023-06-04T04:54:02;14.00;99.90
22081;DHT22;11207;59.512;18.050;2023-06-04T04:56:28;14.30;99.90
22081;DHT22;11207;59.512;18.050;2023-06-04T04:58:55;14.40;99.90
22081;DHT22;11207;59.512;18.050;2023-06-04T05:01:21;14.80;99.30
22081;DHT22;11207;59.512;18.050;2023-06-04T05:03:48;15.00;97.80
22081;DHT22;11207;59.512;18.050;2023-06-04T05:06:14;15.00;96.70
22081;DHT22;11207;59.512;18.050;2023-06-04T05:08:40;15.00;97.00
22081;DHT22;11207;59.512;18.050;2023-06-04T05:11:07;14.90;96.00
22081;DHT22;11207;59.512;18.050;2023-06-04T05:13:33;15.20;95.90
22081;DHT22;11207;59.512;18.050;2023-06-04T05:15:58;15.00;95.00
22081;DHT22;11207;59.512;18.050;2023-06-04T05:18:25;15.00;95.60
22081;DHT22;11207;59.512;18.050;2023-06-04T05:20:54;15.20;95.50
22081;DHT22;11207;59.512;18.050;2023-06-04T05:23:20;15.10;95.20
22081;DHT22;11207;59.512;18.050;2023-06-04T05:25:46;15.00;95.00
22081;DHT22;11207;59.512;18.050;2023-06-04T05:28:14;14.90;95.00
22081;DHT22;11207;59.512;18.050;2023-06-04T05:30:40;14.90;94.80
22081;DHT22;11207;59.512;18.050;2023-06-04T05:33:07;14.90;95.30
22081;DHT22;11207;59.512;18.050;2023-06-04T05:35:40;14.90;94.60
22081;DHT22;11207;59.512;18.050;2023-06-04T05:38:06;15.00;95.60
22081;DHT22;11207;59.512;18.050;2023-06-04T05:40:33;14.90;94.60
22081;DHT22;11207;59.512;18.050;2023-06-04T05:42:59;14.70;95.50
22081;DHT22;11207;59.512;18.050;2023-06-04T05:45:24;14.70;95.20
22081;DHT22;11207;59.512;18.050;2023-06-04T05:47:53;14.80;94.50
22081;DHT22;11207;59.512;18.050;2023-06-04T05:50:19;14.70;95.50
22081;DHT22;11207;59.512;18.050;2023-06-04T05:52:45;14.80;95.70
22081;DHT22;11207;59.512;18.050;2023-06-04T05:55:10;14.70;95.00
22081;DHT22;11207;59.512;18.050;2023-06-04T05:57:36;14.60;94.90
22081;DHT22;11207;59.512;18.050;2023-06-04T06:00:02;14.50;94.30
22081;DHT22;11207;59.512;18.050;2023-06-04T06:02:28;14.60;95.70
22081;DHT22;11207;59.512;18.050;2023-06-04T06:04:54;14.60;95.70
22081;DHT22;11207;59.512;18.050;2023-06-04T06:07:19;14.70;98.10
22081;DHT22;11207;59.512;18.050;2023-06-04T06:09:45;14.60;95.70
22081;DHT22;11207;59.512;18.050;2023-06-04T06:12:10;14.70;96.40
22081;DHT22;11207;59.512;18.050;2023-06-04T06:14:36;14.70;96.10
22081;DHT22;11207;59.512;18.050;2023-06-04T06:17:02;14.50;94.20
22081;DHT22;11207;59.512;18.050;2023-06-04T06:19:28;14.40;94.60
22081;DHT22;11207;59.512;18.050;2023-06-04T06:21:54;14.30;96.10
22081;DHT22;11207;59.512;18.050;2023-06-04T06:24:19;14.20;95.30
22081;DHT22;11207;59.512;18.050;2023-06-04T06:26:45;14.30;95.50
22081;DHT22;11207;59.512;18.050;2023-06-04T06:29:11;14.50;95.40
22081;DHT22;11207;59.512;18.050;2023-06-04T06:31:36;14.60;95.90
22081;DHT22;11207;59.512;18.050;2023-06-04T06:34:02;14.50;95.50
22081;DHT22;11207;59.512;18.050;2023-06-04T06:36:28;14.50;96.40
22081;DHT22;11207;59.512;18.050;2023-06-04T06:38:53;14.50;95.20
22081;DHT22;11207;59.512;18.050;2023-06-04T06:41:19;14.40;95.70
22081;DHT22;11207;59.512;18.050;2023-06-04T06:46:35;14.80;96.20
22081;DHT22;11207;59.512;18.050;2023-06-04T06:49:00;14.90;96.20
22081;DHT22;11207;59.512;18.050;2023-06-04T06:51:26;15.00;93.90
22081;DHT22;11207;59.512;18.050;2023-06-04T06:56:52;14.70;94.30
22081;DHT22;11207;59.512;18.050;2023-06-04T06:59:18;15.00;96.20
22081;DHT22;11207;59.512;18.050;2023-06-04T07:01:43;15.10;96.60
22081;DHT22;11207;59.512;18.050;2023-06-04T07:04:09;15.40;94.40
22081;DHT22;11207;59.512;18.050;2023-06-04T07:06:35;15.50;93.90
22081;DHT22;11207;59.512;18.050;2023-06-04T07:09:02;15.70;94.60
22081;DHT22;11207;59.512;18.050;2023-06-04T07:11:28;15.80;95.10
22081;DHT22;11207;59.512;18.050;2023-06-04T07:13:54;15.60;92.90
22081;DHT22;11207;59.512;18.050;2023-06-04T07:16:19;15.30;92.50
22081;DHT22;11207;59.512;18.050;2023-06-04T07:18:47;15.00;94.60
22081;DHT22;11207;59.512;18.050;2023-06-04T07:21:15;15.30;94.50
22081;DHT22;11207;59.512;18.050;2023-06-04T07:23:40;15.40;92.30
22081;DHT22;11207;59.512;18.050;2023-06-04T07:26:06;15.20;92.50
22081;DHT22;11207;59.512;18.050;2023-06-04T07:28:32;15.30;92.60
22081;DHT22;11207;59.512;18.050;2023-06-04T07:30:58;15.70;94.50
22081;DHT22;11207;59.512;18.050;2023-06-04T07:33:24;15.60;92.90
22081;DHT22;11207;59.512;18.050;2023-06-04T07:35:50;15.80;90.90
22081;DHT22;11207;59.512;18.050;2023-06-04T07:38:16;16.00;90.90
22081;DHT22;11207;59.512;18.050;2023-06-04T07:40:43;16.10;91.80
22081;DHT22;11207;59.512;18.050;2023-06-04T07:43:10;16.20;90.20
22081;DHT22;11207;59.512;18.050;2023-06-04T07:45:35;16.40;91.20
22081;DHT22;11207;59.512;18.050;2023-06-04T07:48:01;16.70;89.20
22081;DHT22;11207;59.512;18.050;2023-06-04T07:50:30;16.60;88.60
22081;DHT22;11207;59.512;18.050;2023-06-04T07:52:56;16.40;90.30
22081;DHT22;11207;59.512;18.050;2023-06-04T07:55:22;16.30;90.90
22081;DHT22;11207;59.512;18.050;2023-06-04T07:57:48;16.20;91.80
22081;DHT22;11207;59.512;18.050;2023-06-04T08:00:14;16.00;90.90
22081;DHT22;11207;59.512;18.050;2023-06-04T08:02:40;16.50;92.50
22081;DHT22;11207;59.512;18.050;2023-06-04T08:05:06;16.80;90.60
22081;DHT22;11207;59.512;18.050;2023-06-04T08:07:31;16.60;87.70
22081;DHT22;11207;59.512;18.050;2023-06-04T08:09:57;16.40;86.70
22081;DHT22;11207;59.512;18.050;2023-06-04T08:12:22;16.10;88.80
22081;DHT22;11207;59.512;18.050;2023-06-04T08:14:48;16.10;90.20
22081;DHT22;11207;59.512;18.050;2023-06-04T08:17:16;16.10;90.80
22081;DHT22;11207;59.512;18.050;2023-06-04T08:19:41;16.00;91.40
22081;DHT22;11207;59.512;18.050;2023-06-04T08:22:07;15.90;91.30
22081;DHT22;11207;59.512;18.050;2023-06-04T08:24:34;15.80;92.90
22081;DHT22;11207;59.512;18.050;2023-06-04T08:27:00;15.60;91.00
22081;DHT22;11207;59.512;18.050;2023-06-04T08:29:26;15.50;92.70
22081;DHT22;11207;59.512;18.050;2023-06-04T08:31:51;15.80;92.20
22081;DHT22;11207;59.512;18.050;2023-06-04T08:34:17;15.70;92.10
22081;DHT22;11207;59.512;18.050;2023-06-04T08:36:43;15.60;92.10
22081;DHT22;11207;59.512;18.050;2023-06-04T08:39:08;15.20;91.20
22081;DHT22;11207;59.512;18.050;2023-06-04T08:41:45;15.30;92.50
22081;DHT22;11207;59.512;18.050;2023-06-04T08:44:11;15.20;92.80
22081;DHT22;11207;59.512;18.050;2023-06-04T08:46:40;15.40;91.50
22081;DHT22;11207;59.512;18.050;2023-06-04T08:49:06;15.30;90.50
22081;DHT22;11207;59.512;18.050;2023-06-04T08:51:34;15.00;92.50
22081;DHT22;11207;59.512;18.050;2023-06-04T08:54:04;15.10;92.00
22081;DHT22;11207;59.512;18.050;2023-06-04T08:56:29;15.10;92.40
22081;DHT22;11207;59.512;18.050;2023-06-04T08:59:02;15.20;92.40
22081;DHT22;11207;59.512;18.050;2023-06-04T09:01:29;15.40;90.80
22081;DHT22;11207;59.512;18.050;2023-06-04T09:03:55;15.60;91.00
22081;DHT22;11207;59.512;18.050;2023-06-04T09:06:26;15.70;90.90
22081;DHT22;11207;59.512;18.050;2023-06-04T09:08:54;15.60;90.80
22081;DHT22;11207;59.512;18.050;2023-06-04T09:11:22;15.70;91.10
22081;DHT22;11207;59.512;18.050;2023-06-04T09:13:50;15.80;91.00
22081;DHT22;11207;59.512;18.050;2023-06-04T09:16:16;16.10;90.20
22081;DHT22;11207;59.512;18.050;2023-06-04T09:18:42;16.10;91.40
22081;DHT22;11207;59.512;18.050;2023-06-04T09:21:08;16.10;89.90
22081;DHT22;11207;59.512;18.050;2023-06-04T09:23:47;15.80;90.80
22081;DHT22;11207;59.512;18.050;2023-06-04T09:26:13;15.90;90.40
22081;DHT22;11207;59.512;18.050;2023-06-04T09:28:43;15.50;90.70
22081;DHT22;11207;59.512;18.050;2023-06-04T09:31:16;15.40;91.50
22081;DHT22;11207;59.512;18.050;2023-06-04T09:33:49;15.40;90.30
22081;DHT22;11207;59.512;18.050;2023-06-04T09:36:15;15.40;91.20
22081;DHT22;11207;59.512;18.050;2023-06-04T09:38:42;15.50;90.30
22081;DHT22;11207;59.512;18.050;2023-06-04T09:41:13;15.60;91.50
22081;DHT22;11207;59.512;18.050;2023-06-04T09:43:39;15.70;90.80
22081;DHT22;11207;59.512;18.050;2023-06-04T09:46:10;15.70;90.80
22081;DHT22;11207;59.512;18.050;2023-06-04T09:48:36;15.80;91.60
22081;DHT22;11207;59.512;18.050;2023-06-04T09:51:13;15.90;90.50
22081;DHT22;11207;59.512;18.050;2023-06-04T09:53:41;16.20;91.00
22081;DHT22;11207;59.512;18.050;2023-06-04T09:56:07;16.40;89.30
22081;DHT22;11207;59.512;18.050;2023-06-04T09:58:34;16.60;88.20
22081;DHT22;11207;59.512;18.050;2023-06-04T10:01:03;16.60;90.10
22081;DHT22;11207;59.512;18.050;2023-06-04T10:03:33;16.50;88.10
22081;DHT22;11207;59.512;18.050;2023-06-04T10:06:05;16.30;88.30
22081;DHT22;11207;59.512;18.050;2023-06-04T10:08:32;16.50;88.30
22081;DHT22;11207;59.512;18.050;2023-06-04T10:11:02;16.60;88.70
22081;DHT22;11207;59.512;18.050;2023-06-04T10:13:48;16.90;88.20
22081;DHT22;11207;59.512;18.050;2023-06-04T10:16:16;16.50;87.90
22081;DHT22;11207;59.512;18.050;2023-06-04T10:18:43;16.70;87.30
22081;DHT22;11207;59.512;18.050;2023-06-04T10:21:10;16.80;86.10
22081;DHT22;11207;59.512;18.050;2023-06-04T10:23:38;16.80;86.80
22081;DHT22;11207;59.512;18.050;2023-06-04T10:26:04;16.70;84.80
22081;DHT22;11207;59.512;18.050;2023-06-04T10:28:30;16.90;85.80
22081;DHT22;11207;59.512;18.050;2023-06-04T10:30:56;16.80;85.30
22081;DHT22;11207;59.512;18.050;2023-06-04T10:33:22;16.50;84.80
22081;DHT22;11207;59.512;18.050;2023-06-04T10:35:53;16.50;86.50
22081;DHT22;11207;59.512;18.050;2023-06-04T10:38:19;16.70;85.70
22081;DHT22;11207;59.512;18.050;2023-06-04T10:40:46;16.80;87.90
22081;DHT22;11207;59.512;18.050;2023-06-04T10:43:13;17.20;87.00
22081;DHT22;11207;59.512;18.050;2023-06-04T10:45:42;17.30;88.80
22081;DHT22;11207;59.512;18.050;2023-06-04T10:48:12;17.50;86.10
22081;DHT22;11207;59.512;18.050;2023-06-04T10:50:49;17.40;82.80
22081;DHT22;11207;59.512;18.050;2023-06-04T10:53:16;17.20;84.50
22081;DHT22;11207;59.512;18.050;2023-06-04T10:55:47;17.40;85.00
22081;DHT22;11207;59.512;18.050;2023-06-04T10:58:12;17.40;86.30
22081;DHT22;11207;59.512;18.050;2023-06-04T11:00:41;17.40;85.10
22081;DHT22;11207;59.512;18.050;2023-06-04T11:03:09;17.30;85.70
22081;DHT22;11207;59.512;18.050;2023-06-04T11:05:36;17.50;88.30
22081;DHT22;11207;59.512;18.050;2023-06-04T11:08:03;17.50;81.90
22081;DHT22;11207;59.512;18.050;2023-06-04T11:10:37;17.50;81.90
22081;DHT22;11207;59.512;18.050;2023-06-04T11:13:04;17.50;82.40
22081;DHT22;11207;59.512;18.050;2023-06-04T11:15:44;17.60;82.80
22081;DHT22;11207;59.512;18.050;2023-06-04T11:18:15;17.60;82.60
22081;DHT22;11207;59.512;18.050;2023-06-04T11:20:41;17.30;81.70
22081;DHT22;11207;59.512;18.050;2023-06-04T11:23:12;17.10;83.80
22081;DHT22;11207;59.512;18.050;2023-06-04T11:25:38;17.10;82.80
22081;DHT22;11207;59.512;18.050;2023-06-04T11:28:04;17.10;82.70
22081;DHT22;11207;59.512;18.050;2023-06-04T11:30:29;17.20;85.00
22081;DHT22;11207;59.512;18.050;2023-06-04T11:33:03;17.60;85.40
22081;DHT22;11207;59.512;18.050;2023-06-04T11:35:29;18.10;80.50
22081;DHT22;11207;59.512;18.050;2023-06-04T11:37:55;18.10;79.70
22081;DHT22;11207;59.512;18.050;2023-06-04T11:40:21;17.90;79.80
22081;DHT22;11207;59.512;18.050;2023-06-04T11:42:47;17.90;81.70
22081;DHT22;11207;59.512;18.050;2023-06-04T11:45:15;17.70;80.00
22081;DHT22;11207;59.512;18.050;2023-06-04T11:47:47;17.60;80.90
22081;DHT22;11207;59.512;18.050;2023-06-04T11:50:13;17.70;82.00
22081;DHT22;11207;59.512;18.050;2023-06-04T11:52:40;17.90;80.60
22081;DHT22;11207;59.512;18.050;2023-06-04T11:55:10;17.90;81.40
22081;DHT22;11207;59.512;18.050;2023-06-04T11:57:39;18.10;81.30
22081;DHT22;11207;59.512;18.050;2023-06-04T12:00:07;18.30;79.20
22081;DHT22;11207;59.512;18.050;2023-06-04T12:02:36;17.90;79.20
22081;DHT22;11207;59.512;18.050;2023-06-04T12:05:16;18.00;80.80
22081;DHT22;11207;59.512;18.050;2023-06-04T12:07:46;17.90;79.70
22081;DHT22;11207;59.512;18.050;2023-06-04T12:10:13;17.90;80.60
22081;DHT22;11207;59.512;18.050;2023-06-04T12:12:38;17.90;80.30
22081;DHT22;11207;59.512;18.050;2023-06-04T12:15:06;17.60;77.40
22081;DHT22;11207;59.512;18.050;2023-06-04T12:17:35;17.80;81.70
22081;DHT22;11207;59.512;18.050;2023-06-04T12:20:02;17.80;77.90
22081;DHT22;11207;59.512;18.050;2023-06-04T12:22:28;17.60;80.90
22081;DHT22;11207;59.512;18.050;2023-06-04T12:24:55;17.60;81.10
22081;DHT22;11207;59.512;18.050;2023-06-04T12:27:23;17.70;81.40
22081;DHT22;11207;59.512;18.050;2023-06-04T12:29:58;17.70;78.90
22081;DHT22;11207;59.512;18.050;2023-06-04T12:32:25;17.60;79.60
22081;DHT22;11207;59.512;18.050;2023-06-04T12:34:51;17.70;81.70
22081;DHT22;11207;59.512;18.050;2023-06-04T12:37:16;17.80;81.00
22081;DHT22;11207;59.512;18.050;2023-06-04T12:39:42;18.00;81.60
22081;DHT22;11207;59.512;18.050;2023-06-04T12:42:08;18.30;79.50
22081;DHT22;11207;59.512;18.050;2023-06-04T12:44:38;18.60;77.20
22081;DHT22;11207;59.512;18.050;2023-06-04T12:47:05;19.20;79.00
22081;DHT22;11207;59.512;18.050;2023-06-04T12:49:31;19.20;75.40
22081;DHT22;11207;59.512;18.050;2023-06-04T12:51:56;19.10;74.80
22081;DHT22;11207;59.512;18.050;2023-06-04T12:54:22;18.50;71.10
22081;DHT22;11207;59.512;18.050;2023-06-04T12:56:48;18.40;77.80
22081;DHT22;11207;59.512;18.050;2023-06-04T12:59:14;18.60;77.10
22081;DHT22;11207;59.512;18.050;2023-06-04T13:01:39;18.70;73.60
22081;DHT22;11207;59.512;18.050;2023-06-04T13:04:06;18.70;76.20
22081;DHT22;11207;59.512;18.050;2023-06-04T13:06:34;18.90;76.80
22081;DHT22;11207;59.512;18.050;2023-06-04T13:09:01;19.10;75.90
22081;DHT22;11207;59.512;18.050;2023-06-04T13:11:26;19.20;73.80
22081;DHT22;11207;59.512;18.050;2023-06-04T13:13:53;19.10;75.10
22081;DHT22;11207;59.512;18.050;2023-06-04T13:16:18;18.90;75.40
22081;DHT22;11207;59.512;18.050;2023-06-04T13:18:44;18.90;71.90
22081;DHT22;11207;59.512;18.050;2023-06-04T13:21:09;18.80;75.20
22081;DHT22;11207;59.512;18.050;2023-06-04T13:23:35;18.90;72.80
22081;DHT22;11207;59.512;18.050;2023-06-04T13:26:01;19.10;75.30
22081;DHT22;11207;59.512;18.050;2023-06-04T13:28:27;19.00;71.40
22081;DHT22;11207;59.512;18.050;2023-06-04T13:30:53;18.90;73.30
22081;DHT22;11207;59.512;18.050;2023-06-04T13:33:18;18.90;74.60
22081;DHT22;11207;59.512;18.050;2023-06-04T13:35:45;19.10;74.70
22081;DHT22;11207;59.512;18.050;2023-06-04T13:38:11;19.10;79.10
22081;DHT22;11207;59.512;18.050;2023-06-04T13:40:38;19.00;73.90
22081;DHT22;11207;59.512;18.050;2023-06-04T13:43:06;19.10;73.30
22081;DHT22;11207;59.512;18.050;2023-06-04T13:45:34;19.00;71.00
22081;DHT22;11207;59.512;18.050;2023-06-04T13:48:00;18.80;74.10
22081;DHT22;11207;59.512;18.050;2023-06-04T13:50:30;18.80;74.00
22081;DHT22;11207;59.512;18.050;2023-06-04T13:52:56;18.80;73.30
22081;DHT22;11207;59.512;18.050;2023-06-04T13:55:22;18.70;71.80
22081;DHT22;11207;59.512;18.050;2023-06-04T13:57:47;18.50;73.00
22081;DHT22;11207;59.512;18.050;2023-06-04T14:00:15;18.40;73.30
22081;DHT22;11207;59.512;18.050;2023-06-04T14:02:41;18.70;74.30
22081;DHT22;11207;59.512;18.050;2023-06-04T14:05:07;18.80;72.70
22081;DHT22;11207;59.512;18.050;2023-06-04T14:07:36;18.80;72.70
22081;DHT22;11207;59.512;18.050;2023-06-04T14:10:01;18.70;71.80
22081;DHT22;11207;59.512;18.050;2023-06-04T14:12:27;18.50;71.00
22081;DHT22;11207;59.512;18.050;2023-06-04T14:14:56;18.40;72.00
22081;DHT22;11207;59.512;18.050;2023-06-04T14:17:21;18.50;75.20
22081;DHT22;11207;59.512;18.050;2023-06-04T14:19:47;18.60;75.50
22081;DHT22;11207;59.512;18.050;2023-06-04T14:22:13;18.70;74.30
22081;DHT22;11207;59.512;18.050;2023-06-04T14:24:40;19.00;73.40
22081;DHT22;11207;59.512;18.050;2023-06-04T14:27:06;18.80;73.00
22081;DHT22;11207;59.512;18.050;2023-06-04T14:29:32;18.70;71.90
22081;DHT22;11207;59.512;18.050;2023-06-04T14:31:58;18.80;73.60
22081;DHT22;11207;59.512;18.050;2023-06-04T14:34:24;18.50;71.10
22081;DHT22;11207;59.512;18.050;2023-06-04T14:36:49;18.50;71.60
22081;DHT22;11207;59.512;18.050;2023-06-04T14:39:16;18.80;71.70
22081;DHT22;11207;59.512;18.050;2023-06-04T14:41:42;18.80;70.00
22081;DHT22;11207;59.512;18.050;2023-06-04T14:44:07;18.80;69.80
22081;DHT22;11207;59.512;18.050;2023-06-04T14:46:33;18.90;70.90
22081;DHT22;11207;59.512;18.050;2023-06-04T14:49:00;19.10;73.40
22081;DHT22;11207;59.512;18.050;2023-06-04T14:51:25;19.20;70.30
22081;DHT22;11207;59.512;18.050;2023-06-04T14:53:51;19.00;68.40
22081;DHT22;11207;59.512;18.050;2023-06-04T14:56:17;19.10;69.50
22081;DHT22;11207;59.512;18.050;2023-06-04T14:58:43;19.20;67.60
22081;DHT22;11207;59.512;18.050;2023-06-04T15:01:09;19.20;68.70
22081;DHT22;11207;59.512;18.050;2023-06-04T15:03:38;19.40;69.00
22081;DHT22;11207;59.512;18.050;2023-06-04T15:06:04;19.60;68.80
22081;DHT22;11207;59.512;18.050;2023-06-04T15:08:30;19.70;66.10
22081;DHT22;11207;59.512;18.050;2023-06-04T15:10:56;19.50;67.60
22081;DHT22;11207;59.512;18.050;2023-06-04T15:13:22;19.30;69.90
22081;DHT22;11207;59.512;18.050;2023-06-04T15:15:47;19.00;70.40
22081;DHT22;11207;59.512;18.050;2023-06-04T15:18:21;18.80;69.70
22081;DHT22;11207;59.512;18.050;2023-06-04T15:20:49;18.80;69.70
22081;DHT22;11207;59.512;18.050;2023-06-04T15:23:15;18.70;71.10